»·PEaware :: N751LU KMRY-KLAS

N751LU :: KMRY-KLAS

FLIGHT INFORMATION

Flight Status: Arrived
Operator: Privately registered:
United States
More flights under this callsign
Pilot: Ewen S. (18928)
Aircraft: BEECH AIRCRAFT PREMIER
(PRM1)
More flights by this aircraft type
Origin: KMRY Monterey Peninsula
United States
Destination: KLAS McCarran Intl
United States
More flights between these airports :: More routes between these airports
Route: +MRY5 SNS PXN NTELL BIH LIDAT BTY SUNST4
File this flight plan on PilotEdge
Remarks:
Altitude:
(Current/Filed)
35,000ft
Speed:
(Current/Filed)
285kts
Departed: 23-Jul-20 02:38 PM
Arrived: 23-Jul-20 03:55 PM
Distance/Time
Traveled:
324nm/1:17
Distance/Time
To Go:
Arrived

Flight Plot

Page will automatically refresh every two minutes.

Flight plan parsing failed; only flown route is shown


Map Options




Map Legend


Flown Route
Filed Route
Departure Airport
Arrival Airport
Navaid (VOR, NDB)
Fix

Horizontal Profiles

Position Reports

Time Latitude Longitude Heading Altitude Ground
Speed
23-Jul-20 14:21 36.589309 -121.857970 305 162ft 0kts
23-Jul-20 14:22 36.589309 -121.857970 305 162ft 0kts
23-Jul-20 14:23 36.589309 -121.857970 305 162ft 0kts
23-Jul-20 14:24 36.589309 -121.857970 305 162ft 0kts
23-Jul-20 14:25 36.589309 -121.857970 305 162ft 0kts
23-Jul-20 14:26 36.589309 -121.857970 305 162ft 0kts
23-Jul-20 14:27 36.589309 -121.857970 305 162ft 0kts
23-Jul-20 14:28 36.589309 -121.857970 305 162ft 0kts
23-Jul-20 14:29 36.589309 -121.857970 305 162ft 0kts
23-Jul-20 14:30 36.589290 -121.858115 191 162ft 0kts
23-Jul-20 14:31 36.589088 -121.857223 77 163ft 10kts
23-Jul-20 14:32 36.588828 -121.852290 114 167ft 20kts
23-Jul-20 14:33 36.586358 -121.845331 113 202ft 22kts
23-Jul-20 14:34 36.583460 -121.836808 112 267ft 22kts
23-Jul-20 14:35 36.582828 -121.834729 93 251ft 0kts
23-Jul-20 14:36 36.583923 -121.835239 292 266ft 21kts
23-Jul-20 14:37 36.590008 -121.853482 293 224ft 144kts
23-Jul-20 14:38 36.616564 -121.896079 334 2328ft 171kts
23-Jul-20 14:39 36.665714 -121.916596 342 4926ft 180kts
23-Jul-20 14:40 36.713790 -121.937919 328 7275ft 188kts
23-Jul-20 14:41 36.737242 -121.994646 330 9347ft 199kts
23-Jul-20 14:42 36.774972 -121.956728 62 11298ft 208kts
23-Jul-20 14:43 36.787792 -121.886261 83 13167ft 226kts
23-Jul-20 14:44 36.792121 -121.806378 81 15100ft 234kts
23-Jul-20 14:45 36.799873 -121.724983 71 16889ft 239kts
23-Jul-20 14:46 36.815611 -121.643435 71 18547ft 245kts
23-Jul-20 14:47 36.831069 -121.559394 72 20069ft 252kts
23-Jul-20 14:48 36.847113 -121.473223 72 21485ft 258kts
23-Jul-20 14:49 36.863447 -121.384739 72 22796ft 264kts
23-Jul-20 14:50 36.879822 -121.295488 73 23989ft 269kts
23-Jul-20 14:51 36.896853 -121.202146 73 25100ft 275kts
23-Jul-20 14:52 36.913799 -121.108721 73 26257ft 274kts
23-Jul-20 14:53 36.930905 -121.014383 73 27134ft 280kts
23-Jul-20 14:54 36.948215 -120.918296 74 27960ft 285kts
23-Jul-20 14:55 36.965839 -120.819945 74 28745ft 290kts
23-Jul-20 14:56 36.983255 -120.722116 74 29651ft 286kts
23-Jul-20 14:57 37.000666 -120.624060 74 30298ft 290kts
23-Jul-20 14:58 37.018317 -120.524101 74 30926ft 294kts
23-Jul-20 14:59 37.035841 -120.423577 74 31588ft 297kts
23-Jul-20 15:00 37.053645 -120.321690 75 32231ft 301kts
23-Jul-20 15:01 37.071054 -120.221428 75 32983ft 297kts
23-Jul-20 15:02 37.087725 -120.125080 75 33459ft 300kts
23-Jul-20 15:03 37.105390 -120.022344 75 33985ft 301kts
23-Jul-20 15:04 37.122672 -119.921170 75 34591ft 297kts
23-Jul-20 15:05 37.139776 -119.820706 75 34928ft 302kts
23-Jul-20 15:06 37.157871 -119.713952 75 34942ft 321kts
23-Jul-20 15:07 37.176860 -119.601042 75 34957ft 341kts
23-Jul-20 15:08 37.196956 -119.480769 76 34971ft 359kts
23-Jul-20 15:09 37.217950 -119.354044 76 34984ft 371kts
23-Jul-20 15:10 37.239492 -119.224489 76 34996ft 380kts
23-Jul-20 15:11 37.261064 -119.092604 77 35011ft 387kts
23-Jul-20 15:12 37.282538 -118.959217 76 35023ft 388kts
23-Jul-20 15:13 37.304181 -118.824914 76 35013ft 390kts
23-Jul-20 15:14 37.325650 -118.690684 76 35011ft 392kts
23-Jul-20 15:15 37.346918 -118.557391 76 35011ft 393kts
23-Jul-20 15:16 37.368224 -118.421764 76 35011ft 395kts
23-Jul-20 15:17 37.381193 -118.283791 84 35008ft 397kts
23-Jul-20 15:18 37.388301 -118.143836 85 35008ft 398kts
23-Jul-20 15:19 37.395478 -118.005100 85 35013ft 399kts
23-Jul-20 15:20 37.402475 -117.865233 85 35024ft 399kts
23-Jul-20 15:21 37.409265 -117.725709 85 35029ft 400kts
23-Jul-20 15:22 37.415952 -117.584896 86 35029ft 401kts
23-Jul-20 15:23 37.422449 -117.444601 86 35030ft 402kts
23-Jul-20 15:24 37.416169 -117.305436 113 35041ft 399kts
23-Jul-20 15:25 37.344447 -117.204650 148 35026ft 389kts
23-Jul-20 15:26 37.254483 -117.128612 149 35019ft 389kts
23-Jul-20 15:27 37.164281 -117.052772 149 34978ft 390kts
23-Jul-20 15:28 37.073187 -116.976052 150 34948ft 391kts
23-Jul-20 15:29 36.982849 -116.900190 149 34376ft 400kts
23-Jul-20 15:30 36.890381 -116.822627 149 32329ft 399kts
23-Jul-20 15:31 36.800743 -116.743536 141 30236ft 394kts
23-Jul-20 15:32 36.727375 -116.643184 134 28149ft 388kts
23-Jul-20 15:33 36.657049 -116.542879 135 26057ft 379kts
23-Jul-20 15:34 36.588294 -116.445282 134 23970ft 370kts
23-Jul-20 15:35 36.521014 -116.350082 134 21889ft 366kts
23-Jul-20 15:36 36.453757 -116.255155 135 20923ft 356kts
23-Jul-20 15:37 36.389295 -116.164485 135 19275ft 345kts
23-Jul-20 15:38 36.326763 -116.076689 135 17564ft 336kts
23-Jul-20 15:39 36.265503 -115.990916 135 16074ft 319kts
23-Jul-20 15:40 36.209132 -115.912093 132 16024ft 311kts
23-Jul-20 15:41 36.171581 -115.810676 115 15269ft 324kts
23-Jul-20 15:42 36.138755 -115.707881 116 14055ft 316kts
23-Jul-20 15:43 36.106163 -115.606845 116 12816ft 309kts
23-Jul-20 15:44 36.074673 -115.509475 116 11580ft 294kts
23-Jul-20 15:45 36.045352 -115.419651 117 11012ft 269kts
23-Jul-20 15:46 36.028999 -115.329167 101 10204ft 275kts
23-Jul-20 15:47 36.021189 -115.237381 103 8611ft 256kts
23-Jul-20 15:48 36.012860 -115.150273 87 6795ft 258kts
23-Jul-20 15:49 36.069374 -115.100971 21 4711ft 268kts
23-Jul-20 15:50 36.133876 -115.077586 340 3859ft 234kts
23-Jul-20 15:51 36.163527 -115.135287 252 2999ft 181kts
23-Jul-20 15:52 36.126202 -115.140186 207 2877ft 161kts
23-Jul-20 15:53 36.092171 -115.160749 205 2185ft 116kts
23-Jul-20 15:54 36.082327 -115.167347 295 2185ft 10kts
23-Jul-20 15:55 36.078817 -115.169886 204 2185ft 24kts
23-Jul-20 15:56 36.081437 -115.171153 256 2185ft 10kts
23-Jul-20 15:57 36.080898 -115.171056 89 2185ft 0kts

Navigation Log

Ident Type
Flight plan parsing failed, navigation log unavailable